sensor_id;sensor_type;location;lat;lon;timestamp;P1;durP1;ratioP1;P2;durP2;ratioP2
69126;SDS011;56688;50.234;19.292;2022-09-27T00:01:03;48.50;;;23.20;;
69126;SDS011;56688;50.234;19.292;2022-09-27T00:03:33;33.00;;;21.00;;
69126;SDS011;56688;50.234;19.292;2022-09-27T00:06:05;35.10;;;20.80;;
69126;SDS011;56688;50.234;19.292;2022-09-27T00:08:37;32.20;;;20.50;;
69126;SDS011;56688;50.234;19.292;2022-09-27T00:11:05;31.50;;;20.30;;
69126;SDS011;56688;50.234;19.292;2022-09-27T00:13:34;32.20;;;21.10;;
69126;SDS011;56688;50.234;19.292;2022-09-27T00:16:02;45.90;;;21.80;;
69126;SDS011;56688;50.234;19.292;2022-09-27T00:18:31;38.80;;;21.50;;
69126;SDS011;56688;50.234;19.292;2022-09-27T00:21:06;41.70;;;22.70;;
69126;SDS011;56688;50.234;19.292;2022-09-27T00:23:35;31.00;;;20.60;;
69126;SDS011;56688;50.234;19.292;2022-09-27T00:26:03;27.50;;;17.70;;
69126;SDS011;56688;50.234;19.292;2022-09-27T00:28:31;25.30;;;17.10;;
69126;SDS011;56688;50.234;19.292;2022-09-27T00:30:59;24.80;;;16.10;;
69126;SDS011;56688;50.234;19.292;2022-09-27T00:33:26;29.60;;;16.40;;
69126;SDS011;56688;50.234;19.292;2022-09-27T00:35:53;38.60;;;18.40;;
69126;SDS011;56688;50.234;19.292;2022-09-27T00:38:20;29.30;;;16.20;;
69126;SDS011;56688;50.234;19.292;2022-09-27T00:40:48;27.30;;;16.90;;
69126;SDS011;56688;50.234;19.292;2022-09-27T00:43:17;23.80;;;16.30;;
69126;SDS011;56688;50.234;19.292;2022-09-27T00:45:48;24.00;;;16.10;;
69126;SDS011;56688;50.234;19.292;2022-09-27T00:48:19;22.80;;;16.50;;
69126;SDS011;56688;50.234;19.292;2022-09-27T00:50:50;28.90;;;18.00;;
69126;SDS011;56688;50.234;19.292;2022-09-27T00:53:23;29.00;;;18.40;;
69126;SDS011;56688;50.234;19.292;2022-09-27T00:55:58;33.60;;;17.90;;
69126;SDS011;56688;50.234;19.292;2022-09-27T00:58:29;27.40;;;18.60;;
69126;SDS011;56688;50.234;19.292;2022-09-27T01:01:02;25.40;;;16.60;;
69126;SDS011;56688;50.234;19.292;2022-09-27T01:03:35;24.30;;;15.20;;
69126;SDS011;56688;50.234;19.292;2022-09-27T01:06:08;20.00;;;15.20;;
69126;SDS011;56688;50.234;19.292;2022-09-27T01:08:36;21.80;;;14.80;;
69126;SDS011;56688;50.234;19.292;2022-09-27T01:14:07;26.80;;;15.00;;
69126;SDS011;56688;50.234;19.292;2022-09-27T01:22:16;21.20;;;14.10;;
69126;SDS011;56688;50.234;19.292;2022-09-27T01:41:32;17.90;;;12.00;;
69126;SDS011;56688;50.234;19.292;2022-09-27T01:44:20;16.10;;;11.70;;
69126;SDS011;56688;50.234;19.292;2022-09-27T01:47:02;20.20;;;11.90;;
69126;SDS011;56688;50.234;19.292;2022-09-27T01:49:51;23.70;;;12.20;;
69126;SDS011;56688;50.234;19.292;2022-09-27T01:52:26;27.50;;;10.70;;
69126;SDS011;56688;50.234;19.292;2022-09-27T01:54:59;16.90;;;12.00;;
69126;SDS011;56688;50.234;19.292;2022-09-27T01:57:47;17.00;;;11.70;;
69126;SDS011;56688;50.234;19.292;2022-09-27T02:00:23;16.70;;;11.70;;
69126;SDS011;56688;50.234;19.292;2022-09-27T02:02:54;16.40;;;12.30;;
69126;SDS011;56688;50.234;19.292;2022-09-27T02:05:31;24.50;;;11.70;;
69126;SDS011;56688;50.234;19.292;2022-09-27T02:08:15;19.00;;;12.40;;
69126;SDS011;56688;50.234;19.292;2022-09-27T02:10:50;23.90;;;12.50;;
69126;SDS011;56688;50.234;19.292;2022-09-27T02:13:23;18.00;;;12.60;;
69126;SDS011;56688;50.234;19.292;2022-09-27T02:19:09;18.70;;;11.60;;
69126;SDS011;56688;50.234;19.292;2022-09-27T02:24:34;16.20;;;11.50;;
69126;SDS011;56688;50.234;19.292;2022-09-27T02:27:11;17.10;;;11.60;;
69126;SDS011;56688;50.234;19.292;2022-09-27T02:29:44;23.60;;;11.80;;
69126;SDS011;56688;50.234;19.292;2022-09-27T02:32:17;20.30;;;11.70;;
69126;SDS011;56688;50.234;19.292;2022-09-27T02:34:44;18.90;;;11.00;;
69126;SDS011;56688;50.234;19.292;2022-09-27T02:37:13;15.40;;;10.80;;
69126;SDS011;56688;50.234;19.292;2022-09-27T02:39:40;18.60;;;12.70;;
69126;SDS011;56688;50.234;19.292;2022-09-27T02:42:07;21.10;;;12.80;;
69126;SDS011;56688;50.234;19.292;2022-09-27T02:44:35;20.70;;;12.60;;
69126;SDS011;56688;50.234;19.292;2022-09-27T02:47:07;23.40;;;14.50;;
69126;SDS011;56688;50.234;19.292;2022-09-27T03:04:56;17.50;;;12.00;;
69126;SDS011;56688;50.234;19.292;2022-09-27T03:07:28;20.90;;;12.70;;
69126;SDS011;56688;50.234;19.292;2022-09-27T03:09:56;18.40;;;10.00;;
69126;SDS011;56688;50.234;19.292;2022-09-27T03:12:23;20.60;;;10.20;;
69126;SDS011;56688;50.234;19.292;2022-09-27T03:14:55;24.00;;;14.20;;
69126;SDS011;56688;50.234;19.292;2022-09-27T03:17:43;23.40;;;13.70;;
69126;SDS011;56688;50.234;19.292;2022-09-27T03:20:26;23.80;;;14.70;;
69126;SDS011;56688;50.234;19.292;2022-09-27T03:23:04;35.80;;;18.60;;
69126;SDS011;56688;50.234;19.292;2022-09-27T03:25:31;24.40;;;15.10;;
69126;SDS011;56688;50.234;19.292;2022-09-27T03:27:58;26.40;;;15.20;;
69126;SDS011;56688;50.234;19.292;2022-09-27T03:30:25;24.90;;;15.20;;
69126;SDS011;56688;50.234;19.292;2022-09-27T03:32:52;24.70;;;14.50;;
69126;SDS011;56688;50.234;19.292;2022-09-27T03:35:34;26.30;;;15.50;;
69126;SDS011;56688;50.234;19.292;2022-09-27T03:38:02;31.40;;;15.90;;
69126;SDS011;56688;50.234;19.292;2022-09-27T03:40:30;25.60;;;15.70;;
69126;SDS011;56688;50.234;19.292;2022-09-27T03:42:57;37.50;;;19.40;;
69126;SDS011;56688;50.234;19.292;2022-09-27T03:45:24;37.20;;;19.70;;
69126;SDS011;56688;50.234;19.292;2022-09-27T03:47:52;30.90;;;17.40;;
69126;SDS011;56688;50.234;19.292;2022-09-27T03:50:20;23.70;;;13.00;;
69126;SDS011;56688;50.234;19.292;2022-09-27T03:52:47;18.10;;;11.20;;
69126;SDS011;56688;50.234;19.292;2022-09-27T03:55:14;23.90;;;14.30;;
69126;SDS011;56688;50.234;19.292;2022-09-27T03:57:43;26.00;;;15.00;;
69126;SDS011;56688;50.234;19.292;2022-09-27T04:00:12;25.90;;;15.40;;
69126;SDS011;56688;50.234;19.292;2022-09-27T04:02:40;14.80;;;8.40;;
69126;SDS011;56688;50.234;19.292;2022-09-27T04:05:24;16.70;;;9.30;;
69126;SDS011;56688;50.234;19.292;2022-09-27T04:07:55;21.20;;;13.10;;
69126;SDS011;56688;50.234;19.292;2022-09-27T04:10:22;18.10;;;12.30;;
69126;SDS011;56688;50.234;19.292;2022-09-27T04:12:50;18.20;;;11.60;;
69126;SDS011;56688;50.234;19.292;2022-09-27T04:15:19;21.60;;;12.80;;
69126;SDS011;56688;50.234;19.292;2022-09-27T04:18:06;22.00;;;13.10;;
69126;SDS011;56688;50.234;19.292;2022-09-27T04:20:34;21.10;;;12.90;;
69126;SDS011;56688;50.234;19.292;2022-09-27T04:23:05;20.20;;;11.00;;
69126;SDS011;56688;50.234;19.292;2022-09-27T04:25:35;17.20;;;11.20;;
69126;SDS011;56688;50.234;19.292;2022-09-27T04:28:08;19.90;;;12.20;;
69126;SDS011;56688;50.234;19.292;2022-09-27T04:30:35;17.90;;;9.20;;
69126;SDS011;56688;50.234;19.292;2022-09-27T04:33:10;23.50;;;12.30;;
69126;SDS011;56688;50.234;19.292;2022-09-27T04:35:53;20.00;;;12.20;;
69126;SDS011;56688;50.234;19.292;2022-09-27T04:38:37;21.90;;;13.60;;
69126;SDS011;56688;50.234;19.292;2022-09-27T04:41:05;12.30;;;7.50;;
69126;SDS011;56688;50.234;19.292;2022-09-27T04:43:35;15.30;;;9.80;;
69126;SDS011;56688;50.234;19.292;2022-09-27T04:46:02;19.80;;;12.40;;
69126;SDS011;56688;50.234;19.292;2022-09-27T04:48:29;22.20;;;11.70;;
69126;SDS011;56688;50.234;19.292;2022-09-27T04:50:57;22.30;;;12.50;;
69126;SDS011;56688;50.234;19.292;2022-09-27T04:53:26;19.80;;;12.50;;
69126;SDS011;56688;50.234;19.292;2022-09-27T04:55:55;20.80;;;12.50;;
69126;SDS011;56688;50.234;19.292;2022-09-27T04:58:23;24.70;;;13.10;;
69126;SDS011;56688;50.234;19.292;2022-09-27T05:00:50;15.00;;;10.30;;
69126;SDS011;56688;50.234;19.292;2022-09-27T05:03:35;15.40;;;10.20;;
69126;SDS011;56688;50.234;19.292;2022-09-27T05:06:09;18.90;;;11.50;;
69126;SDS011;56688;50.234;19.292;2022-09-27T05:08:37;13.60;;;7.70;;
69126;SDS011;56688;50.234;19.292;2022-09-27T05:11:12;20.10;;;12.80;;
69126;SDS011;56688;50.234;19.292;2022-09-27T05:13:40;20.70;;;12.40;;
69126;SDS011;56688;50.234;19.292;2022-09-27T05:16:07;24.70;;;14.10;;
69126;SDS011;56688;50.234;19.292;2022-09-27T05:18:43;23.00;;;13.20;;
69126;SDS011;56688;50.234;19.292;2022-09-27T05:21:26;18.10;;;11.70;;
69126;SDS011;56688;50.234;19.292;2022-09-27T05:23:53;16.50;;;9.20;;
69126;SDS011;56688;50.234;19.292;2022-09-27T05:26:20;19.70;;;11.30;;
69126;SDS011;56688;50.234;19.292;2022-09-27T05:28:47;31.50;;;15.60;;
69126;SDS011;56688;50.234;19.292;2022-09-27T05:31:14;36.20;;;18.60;;
69126;SDS011;56688;50.234;19.292;2022-09-27T05:33:42;36.40;;;20.20;;
69126;SDS011;56688;50.234;19.292;2022-09-27T05:36:29;38.00;;;19.50;;
69126;SDS011;56688;50.234;19.292;2022-09-27T05:38:56;35.20;;;20.00;;
69126;SDS011;56688;50.234;19.292;2022-09-27T05:41:23;28.30;;;17.40;;
69126;SDS011;56688;50.234;19.292;2022-09-27T05:43:51;34.40;;;18.90;;
69126;SDS011;56688;50.234;19.292;2022-09-27T05:46:18;28.60;;;17.10;;
69126;SDS011;56688;50.234;19.292;2022-09-27T05:48:45;28.70;;;16.20;;
69126;SDS011;56688;50.234;19.292;2022-09-27T05:51:13;31.30;;;17.50;;
69126;SDS011;56688;50.234;19.292;2022-09-27T05:53:40;27.40;;;18.00;;
69126;SDS011;56688;50.234;19.292;2022-09-27T05:56:14;26.10;;;17.50;;
69126;SDS011;56688;50.234;19.292;2022-09-27T05:59:00;23.80;;;16.10;;
69126;SDS011;56688;50.234;19.292;2022-09-27T06:01:36;27.80;;;17.70;;
69126;SDS011;56688;50.234;19.292;2022-09-27T06:04:23;28.80;;;18.60;;
69126;SDS011;56688;50.234;19.292;2022-09-27T06:07:07;25.40;;;18.30;;
69126;SDS011;56688;50.234;19.292;2022-09-27T06:09:34;33.00;;;22.50;;
69126;SDS011;56688;50.234;19.292;2022-09-27T06:12:01;32.30;;;21.90;;
69126;SDS011;56688;50.234;19.292;2022-09-27T06:14:28;30.10;;;20.30;;
69126;SDS011;56688;50.234;19.292;2022-09-27T06:17:03;24.10;;;18.10;;
69126;SDS011;56688;50.234;19.292;2022-09-27T06:19:33;21.50;;;16.60;;
69126;SDS011;56688;50.234;19.292;2022-09-27T06:22:01;16.60;;;12.50;;
69126;SDS011;56688;50.234;19.292;2022-09-27T06:24:37;24.50;;;16.30;;
69126;SDS011;56688;50.234;19.292;2022-09-27T06:27:12;22.50;;;14.30;;
69126;SDS011;56688;50.234;19.292;2022-09-27T06:29:46;19.00;;;14.20;;
69126;SDS011;56688;50.234;19.292;2022-09-27T06:32:26;16.10;;;12.90;;
69126;SDS011;56688;50.234;19.292;2022-09-27T06:35:09;15.60;;;10.50;;
69126;SDS011;56688;50.234;19.292;2022-09-27T06:37:35;10.90;;;8.60;;
69126;SDS011;56688;50.234;19.292;2022-09-27T06:40:02;9.90;;;8.20;;
69126;SDS011;56688;50.234;19.292;2022-09-27T06:42:45;7.50;;;6.20;;
69126;SDS011;56688;50.234;19.292;2022-09-27T06:45:18;9.60;;;8.00;;
69126;SDS011;56688;50.234;19.292;2022-09-27T06:48:06;9.00;;;7.60;;
69126;SDS011;56688;50.234;19.292;2022-09-27T06:50:45;9.10;;;8.10;;
69126;SDS011;56688;50.234;19.292;2022-09-27T06:53:15;12.60;;;9.10;;
69126;SDS011;56688;50.234;19.292;2022-09-27T06:55:42;12.40;;;8.90;;
69126;SDS011;56688;50.234;19.292;2022-09-27T06:58:10;12.20;;;8.40;;
69126;SDS011;56688;50.234;19.292;2022-09-27T07:01:13;11.00;;;6.80;;
69126;SDS011;56688;50.234;19.292;2022-09-27T07:03:56;10.20;;;5.40;;
69126;SDS011;56688;50.234;19.292;2022-09-27T07:06:38;7.30;;;5.60;;
69126;SDS011;56688;50.234;19.292;2022-09-27T07:09:18;7.10;;;6.00;;
69126;SDS011;56688;50.234;19.292;2022-09-27T07:11:45;8.40;;;6.20;;
69126;SDS011;56688;50.234;19.292;2022-09-27T07:14:12;7.30;;;5.90;;
69126;SDS011;56688;50.234;19.292;2022-09-27T07:16:39;9.00;;;5.90;;
69126;SDS011;56688;50.234;19.292;2022-09-27T07:19:06;6.50;;;5.40;;
69126;SDS011;56688;50.234;19.292;2022-09-27T07:21:37;7.70;;;5.20;;
69126;SDS011;56688;50.234;19.292;2022-09-27T07:24:04;6.20;;;4.20;;
69126;SDS011;56688;50.234;19.292;2022-09-27T07:26:31;6.80;;;5.30;;
69126;SDS011;56688;50.234;19.292;2022-09-27T07:28:59;6.90;;;5.20;;
69126;SDS011;56688;50.234;19.292;2022-09-27T07:31:28;5.90;;;4.70;;
69126;SDS011;56688;50.234;19.292;2022-09-27T07:33:57;7.20;;;4.90;;
69126;SDS011;56688;50.234;19.292;2022-09-27T07:36:24;7.60;;;4.80;;
69126;SDS011;56688;50.234;19.292;2022-09-27T07:38:51;6.50;;;4.60;;
69126;SDS011;56688;50.234;19.292;2022-09-27T07:41:19;5.50;;;4.90;;
69126;SDS011;56688;50.234;19.292;2022-09-27T07:43:46;7.60;;;6.00;;
69126;SDS011;56688;50.234;19.292;2022-09-27T07:46:13;7.60;;;5.20;;
69126;SDS011;56688;50.234;19.292;2022-09-27T07:48:49;6.30;;;5.10;;
69126;SDS011;56688;50.234;19.292;2022-09-27T07:51:33;6.80;;;5.00;;
69126;SDS011;56688;50.234;19.292;2022-09-27T07:54:07;5.80;;;4.30;;
69126;SDS011;56688;50.234;19.292;2022-09-27T07:56:47;6.00;;;4.30;;
69126;SDS011;56688;50.234;19.292;2022-09-27T07:59:16;6.60;;;4.80;;
69126;SDS011;56688;50.234;19.292;2022-09-27T08:01:43;5.60;;;4.10;;
69126;SDS011;56688;50.234;19.292;2022-09-27T08:04:12;3.90;;;3.50;;
69126;SDS011;56688;50.234;19.292;2022-09-27T08:06:40;3.90;;;3.50;;
69126;SDS011;56688;50.234;19.292;2022-09-27T08:09:07;4.00;;;3.50;;
69126;SDS011;56688;50.234;19.292;2022-09-27T08:11:38;5.70;;;3.50;;
69126;SDS011;56688;50.234;19.292;2022-09-27T08:14:06;5.80;;;3.80;;
69126;SDS011;56688;50.234;19.292;2022-09-27T08:16:33;4.30;;;3.50;;
69126;SDS011;56688;50.234;19.292;2022-09-27T08:19:13;7.40;;;4.50;;
69126;SDS011;56688;50.234;19.292;2022-09-27T08:21:41;5.80;;;3.70;;
69126;SDS011;56688;50.234;19.292;2022-09-27T08:24:12;4.80;;;3.60;;
69126;SDS011;56688;50.234;19.292;2022-09-27T08:26:56;3.50;;;3.00;;
69126;SDS011;56688;50.234;19.292;2022-09-27T08:29:42;3.20;;;2.70;;
69126;SDS011;56688;50.234;19.292;2022-09-27T08:32:10;4.30;;;2.80;;
69126;SDS011;56688;50.234;19.292;2022-09-27T08:34:38;2.80;;;2.50;;
69126;SDS011;56688;50.234;19.292;2022-09-27T08:37:06;2.20;;;2.00;;
69126;SDS011;56688;50.234;19.292;2022-09-27T08:39:32;7.00;;;2.40;;
69126;SDS011;56688;50.234;19.292;2022-09-27T08:47:37;4.80;;;2.60;;
69126;SDS011;56688;50.234;19.292;2022-09-27T08:52:47;3.00;;;2.30;;
69126;SDS011;56688;50.234;19.292;2022-09-27T09:01:03;4.00;;;2.80;;
69126;SDS011;56688;50.234;19.292;2022-09-27T09:03:39;2.70;;;2.40;;
69126;SDS011;56688;50.234;19.292;2022-09-27T09:20:25;3.00;;;2.30;;
69126;SDS011;56688;50.234;19.292;2022-09-27T09:34:07;3.00;;;2.40;;
69126;SDS011;56688;50.234;19.292;2022-09-27T09:39:20;3.40;;;2.50;;
69126;SDS011;56688;50.234;19.292;2022-09-27T09:41:58;2.50;;;2.30;;
69126;SDS011;56688;50.234;19.292;2022-09-27T09:47:25;2.90;;;1.90;;
69126;SDS011;56688;50.234;19.292;2022-09-27T09:49:57;2.80;;;2.50;;
69126;SDS011;56688;50.234;19.292;2022-09-27T09:52:31;3.30;;;1.80;;
69126;SDS011;56688;50.234;19.292;2022-09-27T09:55:14;2.30;;;2.10;;
69126;SDS011;56688;50.234;19.292;2022-09-27T09:57:50;2.20;;;2.00;;
69126;SDS011;56688;50.234;19.292;2022-09-27T10:00:29;4.50;;;2.20;;
69126;SDS011;56688;50.234;19.292;2022-09-27T10:02:57;2.40;;;2.20;;
69126;SDS011;56688;50.234;19.292;2022-09-27T10:05:26;2.10;;;1.90;;
69126;SDS011;56688;50.234;19.292;2022-09-27T10:08:00;4.10;;;2.30;;
69126;SDS011;56688;50.234;19.292;2022-09-27T10:10:30;3.70;;;2.60;;
69126;SDS011;56688;50.234;19.292;2022-09-27T10:13:16;2.60;;;2.20;;
69126;SDS011;56688;50.234;19.292;2022-09-27T10:15:49;2.70;;;2.10;;
69126;SDS011;56688;50.234;19.292;2022-09-27T10:18:22;2.70;;;2.20;;
69126;SDS011;56688;50.234;19.292;2022-09-27T10:20:51;2.50;;;2.30;;
69126;SDS011;56688;50.234;19.292;2022-09-27T10:23:22;2.50;;;2.00;;
69126;SDS011;56688;50.234;19.292;2022-09-27T10:26:04;3.30;;;2.40;;
69126;SDS011;56688;50.234;19.292;2022-09-27T10:28:36;2.80;;;2.50;;
69126;SDS011;56688;50.234;19.292;2022-09-27T10:31:06;4.00;;;2.40;;
69126;SDS011;56688;50.234;19.292;2022-09-27T10:33:51;4.10;;;3.10;;
69126;SDS011;56688;50.234;19.292;2022-09-27T10:36:24;3.40;;;2.50;;
69126;SDS011;56688;50.234;19.292;2022-09-27T10:38:56;3.20;;;2.30;;
69126;SDS011;56688;50.234;19.292;2022-09-27T10:41:33;4.40;;;2.30;;
69126;SDS011;56688;50.234;19.292;2022-09-27T10:47:05;2.60;;;2.40;;
69126;SDS011;56688;50.234;19.292;2022-09-27T10:49:43;3.20;;;2.70;;
69126;SDS011;56688;50.234;19.292;2022-09-27T10:52:15;3.50;;;2.30;;
69126;SDS011;56688;50.234;19.292;2022-09-27T10:57:31;7.40;;;3.90;;
69126;SDS011;56688;50.234;19.292;2022-09-27T11:00:02;8.50;;;4.40;;
69126;SDS011;56688;50.234;19.292;2022-09-27T11:02:34;6.40;;;3.60;;
69126;SDS011;56688;50.234;19.292;2022-09-27T11:10:39;4.10;;;2.90;;
69126;SDS011;56688;50.234;19.292;2022-09-27T11:21:32;4.90;;;2.80;;
69126;SDS011;56688;50.234;19.292;2022-09-27T11:35:43;3.80;;;2.40;;
69126;SDS011;56688;50.234;19.292;2022-09-27T11:46:54;3.20;;;2.30;;
69126;SDS011;56688;50.234;19.292;2022-09-27T11:52:34;3.40;;;2.50;;
69126;SDS011;56688;50.234;19.292;2022-09-27T12:01:05;3.20;;;2.40;;
69126;SDS011;56688;50.234;19.292;2022-09-27T12:06:15;2.70;;;2.30;;
69126;SDS011;56688;50.234;19.292;2022-09-27T12:14:14;5.50;;;2.60;;
69126;SDS011;56688;50.234;19.292;2022-09-27T12:16:53;3.10;;;2.00;;
69126;SDS011;56688;50.234;19.292;2022-09-27T12:19:23;3.80;;;2.50;;
69126;SDS011;56688;50.234;19.292;2022-09-27T12:22:01;2.30;;;1.90;;
69126;SDS011;56688;50.234;19.292;2022-09-27T12:24:35;2.50;;;2.00;;
69126;SDS011;56688;50.234;19.292;2022-09-27T12:27:13;5.50;;;2.60;;
69126;SDS011;56688;50.234;19.292;2022-09-27T12:29:44;3.00;;;2.60;;
69126;SDS011;56688;50.234;19.292;2022-09-27T12:37:15;4.30;;;3.20;;
69126;SDS011;56688;50.234;19.292;2022-09-27T12:42:36;4.10;;;3.10;;
69126;SDS011;56688;50.234;19.292;2022-09-27T12:45:14;9.30;;;3.60;;
69126;SDS011;56688;50.234;19.292;2022-09-27T12:50:34;7.70;;;3.00;;
69126;SDS011;56688;50.234;19.292;2022-09-27T12:53:11;6.60;;;3.50;;
69126;SDS011;56688;50.234;19.292;2022-09-27T12:55:49;5.40;;;3.40;;
69126;SDS011;56688;50.234;19.292;2022-09-27T13:11:46;5.80;;;3.30;;
69126;SDS011;56688;50.234;19.292;2022-09-27T13:14:19;5.00;;;2.90;;
69126;SDS011;56688;50.234;19.292;2022-09-27T13:16:50;7.40;;;2.90;;
69126;SDS011;56688;50.234;19.292;2022-09-27T13:19:36;4.10;;;2.80;;
69126;SDS011;56688;50.234;19.292;2022-09-27T13:22:06;5.00;;;2.80;;
69126;SDS011;56688;50.234;19.292;2022-09-27T13:24:46;4.30;;;3.00;;
69126;SDS011;56688;50.234;19.292;2022-09-27T13:32:39;5.30;;;3.20;;
69126;SDS011;56688;50.234;19.292;2022-09-27T13:38:02;5.90;;;3.40;;
69126;SDS011;56688;50.234;19.292;2022-09-27T13:40:34;6.50;;;2.80;;
69126;SDS011;56688;50.234;19.292;2022-09-27T13:46:14;5.30;;;2.90;;
69126;SDS011;56688;50.234;19.292;2022-09-27T13:51:26;7.50;;;4.30;;
69126;SDS011;56688;50.234;19.292;2022-09-27T13:57:00;7.60;;;3.80;;
69126;SDS011;56688;50.234;19.292;2022-09-27T13:59:49;5.60;;;3.70;;
69126;SDS011;56688;50.234;19.292;2022-09-27T14:02:40;7.40;;;4.50;;
69126;SDS011;56688;50.234;19.292;2022-09-27T14:05:19;8.50;;;4.50;;
69126;SDS011;56688;50.234;19.292;2022-09-27T14:07:52;8.00;;;4.20;;
69126;SDS011;56688;50.234;19.292;2022-09-27T14:10:22;7.60;;;3.90;;
69126;SDS011;56688;50.234;19.292;2022-09-27T14:12:51;6.00;;;3.50;;
69126;SDS011;56688;50.234;19.292;2022-09-27T14:15:23;5.10;;;3.50;;
69126;SDS011;56688;50.234;19.292;2022-09-27T14:17:55;11.20;;;3.40;;
69126;SDS011;56688;50.234;19.292;2022-09-27T14:23:20;7.40;;;3.90;;
69126;SDS011;56688;50.234;19.292;2022-09-27T14:25:50;4.40;;;3.50;;
69126;SDS011;56688;50.234;19.292;2022-09-27T14:34:05;7.70;;;3.40;;
69126;SDS011;56688;50.234;19.292;2022-09-27T14:36:36;4.70;;;3.40;;
69126;SDS011;56688;50.234;19.292;2022-09-27T14:39:29;4.20;;;3.30;;
69126;SDS011;56688;50.234;19.292;2022-09-27T14:42:00;5.80;;;3.70;;
69126;SDS011;56688;50.234;19.292;2022-09-27T14:44:32;4.80;;;3.80;;
69126;SDS011;56688;50.234;19.292;2022-09-27T14:49:48;6.60;;;4.10;;
69126;SDS011;56688;50.234;19.292;2022-09-27T14:52:19;11.00;;;3.80;;
69126;SDS011;56688;50.234;19.292;2022-09-27T14:57:34;4.80;;;2.30;;
69126;SDS011;56688;50.234;19.292;2022-09-27T15:02:47;5.00;;;2.20;;
69126;SDS011;56688;50.234;19.292;2022-09-27T15:05:17;4.10;;;1.50;;
69126;SDS011;56688;50.234;19.292;2022-09-27T15:07:46;3.60;;;1.80;;
69126;SDS011;56688;50.234;19.292;2022-09-27T15:10:14;3.80;;;2.00;;
69126;SDS011;56688;50.234;19.292;2022-09-27T15:12:44;3.60;;;2.10;;
69126;SDS011;56688;50.234;19.292;2022-09-27T15:15:17;5.50;;;2.20;;
69126;SDS011;56688;50.234;19.292;2022-09-27T15:17:48;3.90;;;2.10;;
69126;SDS011;56688;50.234;19.292;2022-09-27T15:20:23;3.30;;;2.30;;
69126;SDS011;56688;50.234;19.292;2022-09-27T15:23:01;5.70;;;3.10;;
69126;SDS011;56688;50.234;19.292;2022-09-27T15:25:34;4.30;;;2.80;;
69126;SDS011;56688;50.234;19.292;2022-09-27T15:30:41;138.80;;;49.80;;
69126;SDS011;56688;50.234;19.292;2022-09-27T15:33:22;44.50;;;16.50;;
69126;SDS011;56688;50.234;19.292;2022-09-27T15:35:52;22.80;;;7.00;;
69126;SDS011;56688;50.234;19.292;2022-09-27T15:38:22;80.50;;;26.20;;
69126;SDS011;56688;50.234;19.292;2022-09-27T15:43:20;15.30;;;5.20;;
69126;SDS011;56688;50.234;19.292;2022-09-27T15:45:56;54.00;;;16.80;;
69126;SDS011;56688;50.234;19.292;2022-09-27T15:48:28;12.10;;;4.70;;
69126;SDS011;56688;50.234;19.292;2022-09-27T15:50:57;76.00;;;27.60;;
69126;SDS011;56688;50.234;19.292;2022-09-27T15:56:09;84.60;;;31.90;;
69126;SDS011;56688;50.234;19.292;2022-09-27T15:58:39;13.40;;;4.70;;
69126;SDS011;56688;50.234;19.292;2022-09-27T16:01:06;72.70;;;28.90;;
69126;SDS011;56688;50.234;19.292;2022-09-27T16:03:33;29.40;;;13.30;;
69126;SDS011;56688;50.234;19.292;2022-09-27T16:06:01;41.60;;;18.40;;
69126;SDS011;56688;50.234;19.292;2022-09-27T16:08:29;36.70;;;16.20;;
69126;SDS011;56688;50.234;19.292;2022-09-27T16:10:56;28.80;;;12.90;;
69126;SDS011;56688;50.234;19.292;2022-09-27T16:16:35;47.70;;;27.30;;
69126;SDS011;56688;50.234;19.292;2022-09-27T16:19:03;30.30;;;13.70;;
69126;SDS011;56688;50.234;19.292;2022-09-27T16:21:29;49.40;;;23.10;;
69126;SDS011;56688;50.234;19.292;2022-09-27T16:23:57;58.90;;;23.80;;
69126;SDS011;56688;50.234;19.292;2022-09-27T16:26:31;40.30;;;18.20;;
69126;SDS011;56688;50.234;19.292;2022-09-27T16:28:59;49.00;;;21.10;;
69126;SDS011;56688;50.234;19.292;2022-09-27T16:31:26;77.80;;;35.80;;
69126;SDS011;56688;50.234;19.292;2022-09-27T16:33:54;39.60;;;17.80;;
69126;SDS011;56688;50.234;19.292;2022-09-27T16:36:21;42.60;;;21.30;;
69126;SDS011;56688;50.234;19.292;2022-09-27T16:38:48;12.20;;;6.70;;
69126;SDS011;56688;50.234;19.292;2022-09-27T16:41:17;8.60;;;5.20;;
69126;SDS011;56688;50.234;19.292;2022-09-27T16:43:45;59.60;;;28.40;;
69126;SDS011;56688;50.234;19.292;2022-09-27T16:46:13;22.60;;;11.20;;
69126;SDS011;56688;50.234;19.292;2022-09-27T16:48:45;46.20;;;24.00;;
69126;SDS011;56688;50.234;19.292;2022-09-27T16:51:15;14.80;;;7.50;;
69126;SDS011;56688;50.234;19.292;2022-09-27T16:54:00;14.00;;;7.90;;
69126;SDS011;56688;50.234;19.292;2022-09-27T16:56:27;30.30;;;15.30;;
69126;SDS011;56688;50.234;19.292;2022-09-27T16:58:54;140.30;;;62.00;;
69126;SDS011;56688;50.234;19.292;2022-09-27T17:01:21;60.20;;;47.10;;
69126;SDS011;56688;50.234;19.292;2022-09-27T17:03:49;16.30;;;10.90;;
69126;SDS011;56688;50.234;19.292;2022-09-27T17:06:22;18.60;;;13.90;;
69126;SDS011;56688;50.234;19.292;2022-09-27T17:08:50;16.30;;;12.00;;
69126;SDS011;56688;50.234;19.292;2022-09-27T17:11:18;16.90;;;12.40;;
69126;SDS011;56688;50.234;19.292;2022-09-27T17:13:46;22.80;;;13.50;;
69126;SDS011;56688;50.234;19.292;2022-09-27T17:16:14;13.80;;;10.40;;
69126;SDS011;56688;50.234;19.292;2022-09-27T17:18:41;18.80;;;12.60;;
69126;SDS011;56688;50.234;19.292;2022-09-27T17:21:09;17.90;;;12.10;;
69126;SDS011;56688;50.234;19.292;2022-09-27T17:23:37;23.10;;;14.80;;
69126;SDS011;56688;50.234;19.292;2022-09-27T17:26:06;22.70;;;14.10;;
69126;SDS011;56688;50.234;19.292;2022-09-27T17:28:38;18.50;;;12.90;;
69126;SDS011;56688;50.234;19.292;2022-09-27T17:31:06;29.00;;;17.60;;
69126;SDS011;56688;50.234;19.292;2022-09-27T17:33:38;21.20;;;13.70;;
69126;SDS011;56688;50.234;19.292;2022-09-27T17:36:10;22.70;;;16.30;;
69126;SDS011;56688;50.234;19.292;2022-09-27T17:38:39;22.10;;;15.90;;
69126;SDS011;56688;50.234;19.292;2022-09-27T17:41:07;21.30;;;15.10;;
69126;SDS011;56688;50.234;19.292;2022-09-27T17:43:37;22.10;;;15.10;;
69126;SDS011;56688;50.234;19.292;2022-09-27T17:46:12;17.30;;;13.10;;
69126;SDS011;56688;50.234;19.292;2022-09-27T17:48:39;21.10;;;15.20;;
69126;SDS011;56688;50.234;19.292;2022-09-27T17:51:22;32.40;;;26.00;;
69126;SDS011;56688;50.234;19.292;2022-09-27T17:53:50;20.00;;;16.20;;
69126;SDS011;56688;50.234;19.292;2022-09-27T17:56:17;64.20;;;40.20;;
69126;SDS011;56688;50.234;19.292;2022-09-27T17:58:45;27.90;;;19.20;;
69126;SDS011;56688;50.234;19.292;2022-09-27T18:01:13;38.60;;;22.40;;
69126;SDS011;56688;50.234;19.292;2022-09-27T18:03:42;133.70;;;59.40;;
69126;SDS011;56688;50.234;19.292;2022-09-27T18:06:10;29.70;;;19.50;;
69126;SDS011;56688;50.234;19.292;2022-09-27T18:08:38;50.50;;;42.60;;
69126;SDS011;56688;50.234;19.292;2022-09-27T18:11:06;24.30;;;17.30;;
69126;SDS011;56688;50.234;19.292;2022-09-27T18:13:35;28.80;;;19.00;;
69126;SDS011;56688;50.234;19.292;2022-09-27T18:18:36;25.20;;;18.50;;
69126;SDS011;56688;50.234;19.292;2022-09-27T18:21:05;30.40;;;23.60;;
69126;SDS011;56688;50.234;19.292;2022-09-27T18:23:37;26.20;;;17.80;;
69126;SDS011;56688;50.234;19.292;2022-09-27T18:26:04;42.30;;;26.30;;